Terminal Aerodrome Forecast
Issued by NWS Sterling, VA

Current Version | Previous Version | Graphics & Text | Print | Product List | Glossary On
Versions: 1 2 3 4 5 6 7 8 9 10 11 12 13 14 15 16 17 18 19 20 21 22 23 24 25
000
FTUS41 KLWX 290800 AAA
TAFDCA
TAF AMD
KDCA 290852Z 2909/3006 23004KT P6SM BKN150
     FM291200 30004KT P6SM BKN250
     FM291500 32009KT P6SM -SHRA BKN050
     FM292000 30004KT P6SM BKN050
     FM292200 00000KT P6SM BKN100
     FM300300 31005KT P6SM SCT250=

USA.gov is the U.S. government's official web portal to all federal, state and local government web resources and services.